sensor_id;sensor_type;location;lat;lon;timestamp;pressure;altitude;pressure_sealevel;temperature;humidity
37170;BME280;23062;13.952;100.608;2023-05-25T00:01:06;1009.33;;;31.97;58.58
37170;BME280;23062;13.952;100.608;2023-05-25T00:05:36;1009.36;;;32.01;58.45
37170;BME280;23062;13.952;100.608;2023-05-25T00:10:04;1009.39;;;32.01;58.58
37170;BME280;23062;13.952;100.608;2023-05-25T00:14:38;1009.47;;;32.02;57.96
37170;BME280;23062;13.952;100.608;2023-05-25T00:19:05;1009.56;;;31.98;57.82
37170;BME280;23062;13.952;100.608;2023-05-25T00:23:32;1009.59;;;31.98;58.05
37170;BME280;23062;13.952;100.608;2023-05-25T00:28:00;1009.68;;;32.01;58.11
37170;BME280;23062;13.952;100.608;2023-05-25T00:32:35;1009.78;;;32.05;57.97
37170;BME280;23062;13.952;100.608;2023-05-25T00:37:09;1009.84;;;32.05;57.83
37170;BME280;23062;13.952;100.608;2023-05-25T00:41:36;1009.93;;;32.07;57.48
37170;BME280;23062;13.952;100.608;2023-05-25T00:46:03;1009.95;;;32.10;57.87
37170;BME280;23062;13.952;100.608;2023-05-25T00:50:39;1010.07;;;32.09;57.76
37170;BME280;23062;13.952;100.608;2023-05-25T00:55:12;1010.07;;;32.08;57.89
37170;BME280;23062;13.952;100.608;2023-05-25T00:59:45;1010.10;;;32.07;58.04
37170;BME280;23062;13.952;100.608;2023-05-25T01:04:15;1010.02;;;32.06;57.33
37170;BME280;23062;13.952;100.608;2023-05-25T01:08:53;1010.02;;;32.01;58.03
37170;BME280;23062;13.952;100.608;2023-05-25T01:13:21;1010.16;;;32.07;58.17
37170;BME280;23062;13.952;100.608;2023-05-25T01:17:55;1010.23;;;32.09;58.39
37170;BME280;23062;13.952;100.608;2023-05-25T01:22:24;1010.16;;;32.11;58.18
37170;BME280;23062;13.952;100.608;2023-05-25T01:26:59;1010.26;;;32.18;58.09
37170;BME280;23062;13.952;100.608;2023-05-25T01:31:25;1010.37;;;32.20;58.53
37170;BME280;23062;13.952;100.608;2023-05-25T01:35:55;1010.37;;;32.24;58.06
37170;BME280;23062;13.952;100.608;2023-05-25T01:40:22;1010.51;;;32.26;57.89
37170;BME280;23062;13.952;100.608;2023-05-25T01:44:49;1010.58;;;32.19;59.74
37170;BME280;23062;13.952;100.608;2023-05-25T01:49:41;1010.59;;;32.19;58.77
37170;BME280;23062;13.952;100.608;2023-05-25T01:53:59;1010.61;;;32.24;58.34
37170;BME280;23062;13.952;100.608;2023-05-25T01:58:25;1010.67;;;32.26;58.10
37170;BME280;23062;13.952;100.608;2023-05-25T02:02:52;1010.74;;;32.29;57.75
37170;BME280;23062;13.952;100.608;2023-05-25T02:07:18;1010.76;;;32.30;57.57
37170;BME280;23062;13.952;100.608;2023-05-25T02:11:44;1010.73;;;32.36;57.19
37170;BME280;23062;13.952;100.608;2023-05-25T02:16:10;1010.71;;;32.35;56.98
37170;BME280;23062;13.952;100.608;2023-05-25T02:20:37;1010.75;;;32.39;56.44
37170;BME280;23062;13.952;100.608;2023-05-25T02:25:02;1010.79;;;32.39;56.34
37170;BME280;23062;13.952;100.608;2023-05-25T02:29:28;1010.84;;;32.43;56.14
37170;BME280;23062;13.952;100.608;2023-05-25T02:33:56;1010.85;;;32.44;55.99
37170;BME280;23062;13.952;100.608;2023-05-25T02:38:22;1010.88;;;32.45;56.09
37170;BME280;23062;13.952;100.608;2023-05-25T02:42:48;1010.80;;;32.45;56.03
37170;BME280;23062;13.952;100.608;2023-05-25T02:47:19;1010.92;;;32.51;56.12
37170;BME280;23062;13.952;100.608;2023-05-25T02:51:46;1010.94;;;32.54;56.09
37170;BME280;23062;13.952;100.608;2023-05-25T02:56:13;1010.87;;;32.56;56.08
37170;BME280;23062;13.952;100.608;2023-05-25T03:00:38;1010.76;;;32.58;56.05
37170;BME280;23062;13.952;100.608;2023-05-25T03:05:08;1010.77;;;32.59;55.88
37170;BME280;23062;13.952;100.608;2023-05-25T03:09:33;1010.64;;;32.60;55.82
37170;BME280;23062;13.952;100.608;2023-05-25T03:13:59;1010.66;;;32.65;55.70
37170;BME280;23062;13.952;100.608;2023-05-25T03:18:24;1010.56;;;32.66;55.70
37170;BME280;23062;13.952;100.608;2023-05-25T03:22:51;1010.58;;;32.67;55.52
37170;BME280;23062;13.952;100.608;2023-05-25T03:27:22;1010.62;;;32.68;55.22
37170;BME280;23062;13.952;100.608;2023-05-25T03:31:50;1010.51;;;32.70;55.09
37170;BME280;23062;13.952;100.608;2023-05-25T03:36:17;1010.55;;;32.71;55.13
37170;BME280;23062;13.952;100.608;2023-05-25T03:40:47;1010.48;;;32.75;54.97
37170;BME280;23062;13.952;100.608;2023-05-25T03:45:22;1010.51;;;32.75;54.81
37170;BME280;23062;13.952;100.608;2023-05-25T03:49:49;1010.55;;;32.77;54.75
37170;BME280;23062;13.952;100.608;2023-05-25T03:54:15;1010.55;;;32.78;54.79
37170;BME280;23062;13.952;100.608;2023-05-25T03:58:41;1010.46;;;32.79;54.89
37170;BME280;23062;13.952;100.608;2023-05-25T04:03:08;1010.38;;;32.82;54.95
37170;BME280;23062;13.952;100.608;2023-05-25T04:07:34;1010.45;;;32.84;54.97
37170;BME280;23062;13.952;100.608;2023-05-25T04:12:08;1010.49;;;32.88;54.72
37170;BME280;23062;13.952;100.608;2023-05-25T04:16:38;1010.37;;;32.88;54.74
37170;BME280;23062;13.952;100.608;2023-05-25T04:21:05;1010.42;;;32.90;54.71
37170;BME280;23062;13.952;100.608;2023-05-25T04:25:31;1010.35;;;32.91;54.60
37170;BME280;23062;13.952;100.608;2023-05-25T04:30:04;1010.22;;;32.93;54.64
37170;BME280;23062;13.952;100.608;2023-05-25T04:34:37;1010.13;;;32.95;54.52
37170;BME280;23062;13.952;100.608;2023-05-25T04:39:09;1010.04;;;32.98;54.62
37170;BME280;23062;13.952;100.608;2023-05-25T04:43:36;1009.89;;;32.97;54.60
37170;BME280;23062;13.952;100.608;2023-05-25T04:48:03;1009.79;;;33.00;54.55
37170;BME280;23062;13.952;100.608;2023-05-25T04:52:30;1009.70;;;33.03;54.58
37170;BME280;23062;13.952;100.608;2023-05-25T04:56:57;1009.58;;;33.05;54.54
37170;BME280;23062;13.952;100.608;2023-05-25T05:01:23;1009.43;;;33.08;54.31
37170;BME280;23062;13.952;100.608;2023-05-25T05:05:51;1009.33;;;33.10;54.04
37170;BME280;23062;13.952;100.608;2023-05-25T05:10:20;1009.37;;;33.11;54.10
37170;BME280;23062;13.952;100.608;2023-05-25T05:14:46;1009.26;;;33.13;54.11
37170;BME280;23062;13.952;100.608;2023-05-25T05:19:16;1009.17;;;33.13;53.79
37170;BME280;23062;13.952;100.608;2023-05-25T05:23:46;1009.23;;;33.19;53.54
37170;BME280;23062;13.952;100.608;2023-05-25T05:28:19;1009.12;;;33.19;53.15
37170;BME280;23062;13.952;100.608;2023-05-25T05:32:52;1009.08;;;33.22;53.20
37170;BME280;23062;13.952;100.608;2023-05-25T05:37:18;1008.93;;;33.27;52.73
37170;BME280;23062;13.952;100.608;2023-05-25T05:41:51;1008.84;;;33.30;52.99
37170;BME280;23062;13.952;100.608;2023-05-25T05:46:24;1008.70;;;33.35;53.09
37170;BME280;23062;13.952;100.608;2023-05-25T05:50:51;1008.59;;;33.37;53.22
37170;BME280;23062;13.952;100.608;2023-05-25T05:55:17;1008.59;;;33.49;52.93
37170;BME280;23062;13.952;100.608;2023-05-25T05:59:43;1008.52;;;33.51;52.35
37170;BME280;23062;13.952;100.608;2023-05-25T06:04:09;1008.42;;;33.47;52.39
37170;BME280;23062;13.952;100.608;2023-05-25T06:08:35;1008.32;;;33.53;52.29
37170;BME280;23062;13.952;100.608;2023-05-25T06:13:01;1008.25;;;33.57;52.36
37170;BME280;23062;13.952;100.608;2023-05-25T06:17:28;1008.18;;;33.60;52.06
37170;BME280;23062;13.952;100.608;2023-05-25T06:21:54;1008.09;;;33.60;52.17
37170;BME280;23062;13.952;100.608;2023-05-25T06:26:20;1008.06;;;33.60;52.21
37170;BME280;23062;13.952;100.608;2023-05-25T06:30:47;1007.90;;;33.64;51.95
37170;BME280;23062;13.952;100.608;2023-05-25T06:35:12;1007.73;;;33.64;51.52
37170;BME280;23062;13.952;100.608;2023-05-25T06:39:46;1007.78;;;33.69;51.94
37170;BME280;23062;13.952;100.608;2023-05-25T06:44:29;1007.59;;;33.65;51.78
37170;BME280;23062;13.952;100.608;2023-05-25T06:48:59;1007.54;;;33.73;51.30
37170;BME280;23062;13.952;100.608;2023-05-25T06:53:32;1007.42;;;33.70;51.56
37170;BME280;23062;13.952;100.608;2023-05-25T06:57:58;1007.40;;;33.77;51.66
37170;BME280;23062;13.952;100.608;2023-05-25T07:02:25;1007.32;;;33.77;51.54
37170;BME280;23062;13.952;100.608;2023-05-25T07:06:51;1007.34;;;33.77;51.70
37170;BME280;23062;13.952;100.608;2023-05-25T07:11:17;1007.26;;;33.77;51.11
37170;BME280;23062;13.952;100.608;2023-05-25T07:15:44;1007.25;;;33.77;51.57
37170;BME280;23062;13.952;100.608;2023-05-25T07:20:10;1007.20;;;33.79;51.51
37170;BME280;23062;13.952;100.608;2023-05-25T07:24:36;1007.17;;;33.79;51.80
37170;BME280;23062;13.952;100.608;2023-05-25T07:29:06;1007.15;;;33.82;52.01
37170;BME280;23062;13.952;100.608;2023-05-25T07:33:38;1007.08;;;33.80;51.88
37170;BME280;23062;13.952;100.608;2023-05-25T07:38:12;1007.06;;;33.81;51.77
37170;BME280;23062;13.952;100.608;2023-05-25T07:42:39;1006.93;;;33.81;51.51
37170;BME280;23062;13.952;100.608;2023-05-25T07:47:07;1006.96;;;33.83;51.49
37170;BME280;23062;13.952;100.608;2023-05-25T07:51:34;1006.94;;;33.83;51.57
37170;BME280;23062;13.952;100.608;2023-05-25T07:56:00;1006.94;;;33.84;51.68
37170;BME280;23062;13.952;100.608;2023-05-25T08:00:27;1006.88;;;33.83;51.87
37170;BME280;23062;13.952;100.608;2023-05-25T08:04:53;1006.93;;;33.83;51.96
37170;BME280;23062;13.952;100.608;2023-05-25T08:09:20;1006.83;;;33.85;51.72
37170;BME280;23062;13.952;100.608;2023-05-25T08:13:46;1006.78;;;33.88;51.28
37170;BME280;23062;13.952;100.608;2023-05-25T08:18:12;1006.75;;;33.89;50.93
37170;BME280;23062;13.952;100.608;2023-05-25T08:22:38;1006.67;;;33.89;50.82
37170;BME280;23062;13.952;100.608;2023-05-25T08:27:05;1006.56;;;33.91;50.76
37170;BME280;23062;13.952;100.608;2023-05-25T08:31:38;1006.55;;;33.89;50.85
37170;BME280;23062;13.952;100.608;2023-05-25T08:36:06;1006.50;;;33.86;50.96
37170;BME280;23062;13.952;100.608;2023-05-25T08:40:32;1006.45;;;33.84;51.31
37170;BME280;23062;13.952;100.608;2023-05-25T08:45:06;1006.33;;;33.84;51.33
37170;BME280;23062;13.952;100.608;2023-05-25T08:49:38;1006.31;;;33.84;51.38
37170;BME280;23062;13.952;100.608;2023-05-25T08:54:08;1006.22;;;33.82;51.23
37170;BME280;23062;13.952;100.608;2023-05-25T08:58:36;1006.10;;;33.84;51.09
37170;BME280;23062;13.952;100.608;2023-05-25T09:03:14;1006.01;;;33.84;51.08
37170;BME280;23062;13.952;100.608;2023-05-25T09:07:43;1005.95;;;33.85;51.26
37170;BME280;23062;13.952;100.608;2023-05-25T09:12:18;1005.86;;;33.85;51.29
37170;BME280;23062;13.952;100.608;2023-05-25T09:16:51;1005.73;;;33.83;51.47
37170;BME280;23062;13.952;100.608;2023-05-25T09:21:18;1005.65;;;33.83;51.47
37170;BME280;23062;13.952;100.608;2023-05-25T09:25:51;1005.60;;;33.81;51.98
37170;BME280;23062;13.952;100.608;2023-05-25T09:30:19;1005.49;;;33.79;53.22
37170;BME280;23062;13.952;100.608;2023-05-25T09:34:47;1005.45;;;33.78;53.42
37170;BME280;23062;13.952;100.608;2023-05-25T09:39:21;1005.35;;;33.77;53.30
37170;BME280;23062;13.952;100.608;2023-05-25T09:43:48;1005.33;;;33.76;53.38
37170;BME280;23062;13.952;100.608;2023-05-25T09:48:15;1005.33;;;33.74;53.14
37170;BME280;23062;13.952;100.608;2023-05-25T09:52:48;1005.31;;;33.76;52.81
37170;BME280;23062;13.952;100.608;2023-05-25T09:57:17;1005.22;;;33.76;52.54
37170;BME280;23062;13.952;100.608;2023-05-25T10:01:44;1005.15;;;33.75;52.20
37170;BME280;23062;13.952;100.608;2023-05-25T10:06:19;1005.12;;;33.74;52.07
37170;BME280;23062;13.952;100.608;2023-05-25T10:10:53;1005.20;;;33.77;51.80
37170;BME280;23062;13.952;100.608;2023-05-25T10:15:19;1005.03;;;33.70;51.45
37170;BME280;23062;13.952;100.608;2023-05-25T10:19:56;1005.15;;;33.77;51.02
37170;BME280;23062;13.952;100.608;2023-05-25T10:29:25;1005.12;;;33.78;50.38
37170;BME280;23062;13.952;100.608;2023-05-25T10:33:52;1005.14;;;33.78;49.87
37170;BME280;23062;13.952;100.608;2023-05-25T10:38:19;1005.14;;;33.77;49.78
37170;BME280;23062;13.952;100.608;2023-05-25T10:42:47;1005.16;;;33.77;49.91
37170;BME280;23062;13.952;100.608;2023-05-25T10:47:12;1005.24;;;33.78;49.80
37170;BME280;23062;13.952;100.608;2023-05-25T10:51:39;1005.25;;;33.78;49.75
37170;BME280;23062;13.952;100.608;2023-05-25T10:56:07;1005.42;;;33.77;50.24
37170;BME280;23062;13.952;100.608;2023-05-25T11:00:41;1005.46;;;33.80;50.70
37170;BME280;23062;13.952;100.608;2023-05-25T11:05:38;1005.49;;;33.82;50.71
37170;BME280;23062;13.952;100.608;2023-05-25T11:10:06;1005.66;;;33.81;50.74
37170;BME280;23062;13.952;100.608;2023-05-25T11:14:39;1005.81;;;33.82;50.63
37170;BME280;23062;13.952;100.608;2023-05-25T11:19:13;1005.89;;;33.83;50.71
37170;BME280;23062;13.952;100.608;2023-05-25T11:23:58;1005.91;;;33.81;50.30
37170;BME280;23062;13.952;100.608;2023-05-25T11:28:32;1005.98;;;33.81;50.15
37170;BME280;23062;13.952;100.608;2023-05-25T11:33:01;1006.04;;;33.80;50.20
37170;BME280;23062;13.952;100.608;2023-05-25T11:37:34;1006.08;;;33.81;50.11
37170;BME280;23062;13.952;100.608;2023-05-25T11:42:05;1006.13;;;33.79;49.97
37170;BME280;23062;13.952;100.608;2023-05-25T11:46:31;1006.13;;;33.75;50.11
37170;BME280;23062;13.952;100.608;2023-05-25T11:51:06;1006.14;;;33.75;50.50
37170;BME280;23062;13.952;100.608;2023-05-25T11:55:32;1006.24;;;33.75;50.44
37170;BME280;23062;13.952;100.608;2023-05-25T12:00:00;1006.24;;;33.74;51.36
37170;BME280;23062;13.952;100.608;2023-05-25T12:04:27;1006.33;;;33.75;51.96
37170;BME280;23062;13.952;100.608;2023-05-25T12:08:56;1006.36;;;33.74;52.41
37170;BME280;23062;13.952;100.608;2023-05-25T12:13:24;1006.32;;;33.72;52.65
37170;BME280;23062;13.952;100.608;2023-05-25T12:17:52;1006.41;;;33.74;52.51
37170;BME280;23062;13.952;100.608;2023-05-25T12:22:18;1006.49;;;33.72;52.77
37170;BME280;23062;13.952;100.608;2023-05-25T12:26:53;1006.59;;;33.71;52.77
37170;BME280;23062;13.952;100.608;2023-05-25T12:31:31;1006.67;;;33.69;52.99
37170;BME280;23062;13.952;100.608;2023-05-25T12:36:00;1006.69;;;33.69;52.95
37170;BME280;23062;13.952;100.608;2023-05-25T12:40:26;1006.84;;;33.68;52.98
37170;BME280;23062;13.952;100.608;2023-05-25T12:45:00;1006.93;;;33.63;53.30
37170;BME280;23062;13.952;100.608;2023-05-25T12:49:26;1006.98;;;33.66;53.51
37170;BME280;23062;13.952;100.608;2023-05-25T12:53:59;1007.14;;;33.67;53.74
37170;BME280;23062;13.952;100.608;2023-05-25T12:58:34;1007.28;;;33.66;54.01
37170;BME280;23062;13.952;100.608;2023-05-25T13:03:04;1007.26;;;33.60;54.30
37170;BME280;23062;13.952;100.608;2023-05-25T13:07:34;1007.42;;;33.49;55.26
37170;BME280;23062;13.952;100.608;2023-05-25T13:12:03;1007.51;;;33.62;54.98
37170;BME280;23062;13.952;100.608;2023-05-25T13:16:33;1007.65;;;33.65;55.01
37170;BME280;23062;13.952;100.608;2023-05-25T13:21:00;1007.74;;;33.66;55.18
37170;BME280;23062;13.952;100.608;2023-05-25T13:25:26;1007.72;;;33.67;55.19
37170;BME280;23062;13.952;100.608;2023-05-25T13:29:54;1007.82;;;33.67;55.23
37170;BME280;23062;13.952;100.608;2023-05-25T13:34:21;1007.94;;;33.64;55.09
37170;BME280;23062;13.952;100.608;2023-05-25T13:38:48;1008.12;;;33.66;55.41
37170;BME280;23062;13.952;100.608;2023-05-25T13:43:18;1008.24;;;33.66;55.42
37170;BME280;23062;13.952;100.608;2023-05-25T13:47:45;1008.31;;;33.66;55.28
37170;BME280;23062;13.952;100.608;2023-05-25T13:52:12;1008.44;;;33.65;55.08
37170;BME280;23062;13.952;100.608;2023-05-25T13:56:38;1008.50;;;33.65;55.18
37170;BME280;23062;13.952;100.608;2023-05-25T14:01:05;1008.65;;;33.63;55.45
37170;BME280;23062;13.952;100.608;2023-05-25T14:05:36;1008.69;;;33.64;55.48
37170;BME280;23062;13.952;100.608;2023-05-25T14:10:04;1008.84;;;33.62;55.42
37170;BME280;23062;13.952;100.608;2023-05-25T14:14:34;1008.87;;;33.60;55.50
37170;BME280;23062;13.952;100.608;2023-05-25T14:19:00;1008.92;;;33.59;55.25
37170;BME280;23062;13.952;100.608;2023-05-25T14:23:25;1008.98;;;33.60;55.31
37170;BME280;23062;13.952;100.608;2023-05-25T14:27:58;1009.06;;;33.59;55.46
37170;BME280;23062;13.952;100.608;2023-05-25T14:32:25;1009.08;;;33.56;55.40
37170;BME280;23062;13.952;100.608;2023-05-25T14:36:51;1009.20;;;33.60;55.51
37170;BME280;23062;13.952;100.608;2023-05-25T14:41:22;1009.28;;;33.59;55.62
37170;BME280;23062;13.952;100.608;2023-05-25T14:45:57;1009.40;;;33.59;55.62
37170;BME280;23062;13.952;100.608;2023-05-25T14:50:28;1009.36;;;33.59;55.80
37170;BME280;23062;13.952;100.608;2023-05-25T14:54:54;1009.34;;;33.57;55.82
37170;BME280;23062;13.952;100.608;2023-05-25T14:59:20;1009.38;;;33.56;56.12
37170;BME280;23062;13.952;100.608;2023-05-25T15:03:47;1009.38;;;33.56;56.31
37170;BME280;23062;13.952;100.608;2023-05-25T15:08:21;1009.38;;;33.55;56.40
37170;BME280;23062;13.952;100.608;2023-05-25T15:12:49;1009.50;;;33.55;56.30
37170;BME280;23062;13.952;100.608;2023-05-25T15:17:16;1009.53;;;33.57;56.43
37170;BME280;23062;13.952;100.608;2023-05-25T15:21:46;1009.55;;;33.55;56.50
37170;BME280;23062;13.952;100.608;2023-05-25T15:26:12;1009.49;;;33.53;56.22
37170;BME280;23062;13.952;100.608;2023-05-25T15:30:39;1009.56;;;33.55;56.21
37170;BME280;23062;13.952;100.608;2023-05-25T15:35:07;1009.64;;;33.57;56.34
37170;BME280;23062;13.952;100.608;2023-05-25T15:39:34;1009.71;;;33.52;56.43
37170;BME280;23062;13.952;100.608;2023-05-25T15:44:06;1009.79;;;33.54;56.36
37170;BME280;23062;13.952;100.608;2023-05-25T15:48:39;1009.76;;;33.52;56.38
37170;BME280;23062;13.952;100.608;2023-05-25T15:53:05;1009.66;;;33.53;56.52
37170;BME280;23062;13.952;100.608;2023-05-25T15:57:32;1009.67;;;33.52;56.36
37170;BME280;23062;13.952;100.608;2023-05-25T16:01:58;1009.64;;;33.52;56.63
37170;BME280;23062;13.952;100.608;2023-05-25T16:06:23;1009.71;;;33.54;56.53
37170;BME280;23062;13.952;100.608;2023-05-25T16:10:53;1009.66;;;33.51;56.50
37170;BME280;23062;13.952;100.608;2023-05-25T16:15:22;1009.63;;;33.51;56.69
37170;BME280;23062;13.952;100.608;2023-05-25T16:19:49;1009.66;;;33.50;56.61
37170;BME280;23062;13.952;100.608;2023-05-25T16:24:16;1009.54;;;33.50;56.57
37170;BME280;23062;13.952;100.608;2023-05-25T16:28:44;1009.56;;;33.49;56.89
37170;BME280;23062;13.952;100.608;2023-05-25T16:33:21;1009.53;;;33.50;56.67
37170;BME280;23062;13.952;100.608;2023-05-25T16:37:48;1009.43;;;33.49;56.85
37170;BME280;23062;13.952;100.608;2023-05-25T16:42:16;1009.41;;;33.48;56.82
37170;BME280;23062;13.952;100.608;2023-05-25T16:46:42;1009.57;;;33.47;56.89
37170;BME280;23062;13.952;100.608;2023-05-25T16:51:14;1009.65;;;33.45;56.83
37170;BME280;23062;13.952;100.608;2023-05-25T16:55:41;1009.57;;;33.45;57.43
37170;BME280;23062;13.952;100.608;2023-05-25T17:00:10;1009.52;;;33.46;57.03
37170;BME280;23062;13.952;100.608;2023-05-25T17:04:38;1009.46;;;33.47;56.81
37170;BME280;23062;13.952;100.608;2023-05-25T17:09:05;1009.38;;;33.46;56.89
37170;BME280;23062;13.952;100.608;2023-05-25T17:13:31;1009.30;;;33.47;57.14
37170;BME280;23062;13.952;100.608;2023-05-25T17:17:58;1009.28;;;33.47;57.67
37170;BME280;23062;13.952;100.608;2023-05-25T17:22:23;1009.24;;;33.47;57.86
37170;BME280;23062;13.952;100.608;2023-05-25T17:26:59;1009.27;;;33.45;57.19
37170;BME280;23062;13.952;100.608;2023-05-25T17:31:27;1009.17;;;33.45;57.86
37170;BME280;23062;13.952;100.608;2023-05-25T17:35:55;1009.15;;;33.44;58.48
37170;BME280;23062;13.952;100.608;2023-05-25T17:40:30;1009.11;;;33.45;57.60
37170;BME280;23062;13.952;100.608;2023-05-25T17:44:56;1009.05;;;33.43;59.11
37170;BME280;23062;13.952;100.608;2023-05-25T17:49:22;1008.97;;;33.43;59.29
37170;BME280;23062;13.952;100.608;2023-05-25T17:53:49;1008.99;;;33.44;58.92
37170;BME280;23062;13.952;100.608;2023-05-25T17:58:17;1008.96;;;33.44;59.18
37170;BME280;23062;13.952;100.608;2023-05-25T18:02:51;1008.89;;;33.39;58.52
37170;BME280;23062;13.952;100.608;2023-05-25T18:07:17;1008.87;;;33.41;59.18
37170;BME280;23062;13.952;100.608;2023-05-25T18:11:44;1008.84;;;33.37;57.34
37170;BME280;23062;13.952;100.608;2023-05-25T18:16:13;1008.86;;;33.40;58.66
37170;BME280;23062;13.952;100.608;2023-05-25T18:20:46;1008.80;;;33.38;59.52
37170;BME280;23062;13.952;100.608;2023-05-25T18:25:12;1008.69;;;33.37;58.57
37170;BME280;23062;13.952;100.608;2023-05-25T18:29:38;1008.63;;;33.42;58.29
37170;BME280;23062;13.952;100.608;2023-05-25T18:34:07;1008.60;;;33.42;58.98
37170;BME280;23062;13.952;100.608;2023-05-25T18:38:33;1008.52;;;33.43;58.55
37170;BME280;23062;13.952;100.608;2023-05-25T18:42:59;1008.45;;;33.39;58.71
37170;BME280;23062;13.952;100.608;2023-05-25T18:47:24;1008.45;;;33.41;58.54
37170;BME280;23062;13.952;100.608;2023-05-25T18:51:51;1008.28;;;33.43;58.87
37170;BME280;23062;13.952;100.608;2023-05-25T18:56:16;1008.35;;;33.41;58.58
37170;BME280;23062;13.952;100.608;2023-05-25T19:00:44;1008.27;;;33.42;58.55
37170;BME280;23062;13.952;100.608;2023-05-25T19:05:10;1008.29;;;33.42;59.00
37170;BME280;23062;13.952;100.608;2023-05-25T19:09:45;1008.27;;;33.40;59.41
37170;BME280;23062;13.952;100.608;2023-05-25T19:14:13;1008.06;;;33.35;60.11
37170;BME280;23062;13.952;100.608;2023-05-25T19:18:38;1008.01;;;33.32;59.75
37170;BME280;23062;13.952;100.608;2023-05-25T19:23:05;1007.95;;;33.30;60.29
37170;BME280;23062;13.952;100.608;2023-05-25T19:27:38;1007.89;;;33.26;60.05
37170;BME280;23062;13.952;100.608;2023-05-25T19:32:05;1007.75;;;33.27;59.62
37170;BME280;23062;13.952;100.608;2023-05-25T19:36:32;1007.62;;;33.26;59.00
37170;BME280;23062;13.952;100.608;2023-05-25T19:41:05;1007.63;;;33.25;58.28
37170;BME280;23062;13.952;100.608;2023-05-25T19:45:30;1007.69;;;33.22;57.57
37170;BME280;23062;13.952;100.608;2023-05-25T19:50:03;1007.71;;;33.21;57.38
37170;BME280;23062;13.952;100.608;2023-05-25T19:54:31;1007.69;;;33.17;56.84
37170;BME280;23062;13.952;100.608;2023-05-25T19:59:06;1007.67;;;33.16;56.31
37170;BME280;23062;13.952;100.608;2023-05-25T20:03:32;1007.69;;;33.16;56.22
37170;BME280;23062;13.952;100.608;2023-05-25T20:08:04;1007.70;;;33.14;55.93
37170;BME280;23062;13.952;100.608;2023-05-25T20:12:32;1007.60;;;33.12;55.82
37170;BME280;23062;13.952;100.608;2023-05-25T20:16:59;1007.57;;;33.11;55.23
37170;BME280;23062;13.952;100.608;2023-05-25T20:21:26;1007.56;;;33.10;54.83
37170;BME280;23062;13.952;100.608;2023-05-25T20:25:55;1007.59;;;33.06;55.14
37170;BME280;23062;13.952;100.608;2023-05-25T20:30:23;1007.66;;;33.07;54.49
37170;BME280;23062;13.952;100.608;2023-05-25T20:34:55;1007.80;;;33.06;54.05
37170;BME280;23062;13.952;100.608;2023-05-25T20:39:22;1007.82;;;33.01;54.50
37170;BME280;23062;13.952;100.608;2023-05-25T20:43:48;1007.85;;;32.82;53.07
37170;BME280;23062;13.952;100.608;2023-05-25T20:48:15;1007.85;;;32.72;52.74
37170;BME280;23062;13.952;100.608;2023-05-25T20:52:41;1007.78;;;32.65;52.67
37170;BME280;23062;13.952;100.608;2023-05-25T20:57:10;1007.85;;;32.64;52.59
37170;BME280;23062;13.952;100.608;2023-05-25T21:01:39;1007.88;;;32.63;52.47
37170;BME280;23062;13.952;100.608;2023-05-25T21:06:05;1007.88;;;32.57;52.41
37170;BME280;23062;13.952;100.608;2023-05-25T21:10:32;1007.84;;;32.56;52.50
37170;BME280;23062;13.952;100.608;2023-05-25T21:14:58;1007.82;;;32.53;52.27
37170;BME280;23062;13.952;100.608;2023-05-25T21:19:23;1007.85;;;32.50;52.37
37170;BME280;23062;13.952;100.608;2023-05-25T21:23:55;1007.83;;;32.46;52.43
37170;BME280;23062;13.952;100.608;2023-05-25T21:28:23;1007.86;;;32.42;52.54
37170;BME280;23062;13.952;100.608;2023-05-25T21:32:51;1007.99;;;32.42;52.58
37170;BME280;23062;13.952;100.608;2023-05-25T21:37:17;1007.99;;;32.39;52.73
37170;BME280;23062;13.952;100.608;2023-05-25T21:41:43;1008.05;;;32.38;52.95
37170;BME280;23062;13.952;100.608;2023-05-25T21:46:08;1008.16;;;32.36;52.98
37170;BME280;23062;13.952;100.608;2023-05-25T21:50:40;1008.13;;;32.34;53.04
37170;BME280;23062;13.952;100.608;2023-05-25T21:55:06;1008.19;;;32.33;53.15
37170;BME280;23062;13.952;100.608;2023-05-25T21:59:33;1008.23;;;32.31;53.29
37170;BME280;23062;13.952;100.608;2023-05-25T22:04:00;1008.35;;;32.26;53.47
37170;BME280;23062;13.952;100.608;2023-05-25T22:08:26;1008.38;;;32.27;53.39
37170;BME280;23062;13.952;100.608;2023-05-25T22:12:52;1008.38;;;31.97;53.98
37170;BME280;23062;13.952;100.608;2023-05-25T22:17:19;1008.41;;;31.64;55.38
37170;BME280;23062;13.952;100.608;2023-05-25T22:21:44;1008.42;;;31.58;55.52
37170;BME280;23062;13.952;100.608;2023-05-25T22:26:15;1008.44;;;31.48;56.02
37170;BME280;23062;13.952;100.608;2023-05-25T22:30:40;1008.39;;;31.53;56.06
37170;BME280;23062;13.952;100.608;2023-05-25T22:35:07;1008.48;;;31.96;55.33
37170;BME280;23062;13.952;100.608;2023-05-25T22:39:33;1008.58;;;32.13;55.10
37170;BME280;23062;13.952;100.608;2023-05-25T22:44:00;1008.56;;;32.21;54.88
37170;BME280;23062;13.952;100.608;2023-05-25T22:48:26;1008.59;;;32.24;54.86
37170;BME280;23062;13.952;100.608;2023-05-25T22:52:58;1008.64;;;32.28;54.57
37170;BME280;23062;13.952;100.608;2023-05-25T22:57:32;1008.61;;;32.21;54.82
37170;BME280;23062;13.952;100.608;2023-05-25T23:01:58;1008.57;;;32.18;54.62
37170;BME280;23062;13.952;100.608;2023-05-25T23:06:25;1008.54;;;32.13;54.61
37170;BME280;23062;13.952;100.608;2023-05-25T23:10:51;1008.61;;;32.15;54.77
37170;BME280;23062;13.952;100.608;2023-05-25T23:15:17;1008.71;;;32.17;54.65
37170;BME280;23062;13.952;100.608;2023-05-25T23:19:43;1008.74;;;32.14;54.83
37170;BME280;23062;13.952;100.608;2023-05-25T23:24:10;1008.84;;;32.19;54.84
37170;BME280;23062;13.952;100.608;2023-05-25T23:28:36;1008.90;;;32.17;54.86